sensor_id;sensor_type;location;lat;lon;timestamp;pressure;altitude;pressure_sealevel;temperature;humidity
40574;BME280;26283;49.020;8.644;2022-11-23T00:01:23;97898.09;;;10.78;59.72
40574;BME280;26283;49.020;8.644;2022-11-23T00:03:51;97901.03;;;10.76;59.76
40574;BME280;26283;49.020;8.644;2022-11-23T00:06:17;97897.28;;;10.77;59.62
40574;BME280;26283;49.020;8.644;2022-11-23T00:08:43;97895.66;;;10.76;59.64
40574;BME280;26283;49.020;8.644;2022-11-23T00:11:09;97899.41;;;10.75;59.66
40574;BME280;26283;49.020;8.644;2022-11-23T00:13:35;97896.72;;;10.75;59.69
40574;BME280;26283;49.020;8.644;2022-11-23T00:16:25;97899.97;;;10.77;59.70
40574;BME280;26283;49.020;8.644;2022-11-23T00:18:52;97900.22;;;10.76;59.97
40574;BME280;26283;49.020;8.644;2022-11-23T00:21:18;97904.81;;;10.75;59.71
40574;BME280;26283;49.020;8.644;2022-11-23T00:23:45;97902.34;;;10.74;59.78
40574;BME280;26283;49.020;8.644;2022-11-23T00:26:11;97893.47;;;10.73;59.84
40574;BME280;26283;49.020;8.644;2022-11-23T00:28:37;97892.66;;;10.73;59.84
40574;BME280;26283;49.020;8.644;2022-11-23T00:31:05;97894.28;;;10.74;59.82
40574;BME280;26283;49.020;8.644;2022-11-23T00:33:31;97902.59;;;10.72;59.84
40574;BME280;26283;49.020;8.644;2022-11-23T00:36:09;97898.28;;;10.71;59.85
40574;BME280;26283;49.020;8.644;2022-11-23T00:38:35;97902.84;;;10.71;59.95
40574;BME280;26283;49.020;8.644;2022-11-23T00:41:03;97907.44;;;10.70;59.79
40574;BME280;26283;49.020;8.644;2022-11-23T00:43:29;97905.81;;;10.69;59.83
40574;BME280;26283;49.020;8.644;2022-11-23T00:46:09;97912.00;;;10.70;59.81
40574;BME280;26283;49.020;8.644;2022-11-23T00:48:37;97903.09;;;10.69;59.97
40574;BME280;26283;49.020;8.644;2022-11-23T00:51:05;97897.16;;;10.67;59.76
40574;BME280;26283;49.020;8.644;2022-11-23T00:53:30;97895.28;;;10.68;59.83
40574;BME280;26283;49.020;8.644;2022-11-23T00:55:56;97899.84;;;10.67;59.78
40574;BME280;26283;49.020;8.644;2022-11-23T00:58:22;97900.66;;;10.68;59.78
40574;BME280;26283;49.020;8.644;2022-11-23T01:00:48;97899.03;;;10.67;59.71
40574;BME280;26283;49.020;8.644;2022-11-23T01:03:14;97897.41;;;10.65;59.63
40574;BME280;26283;49.020;8.644;2022-11-23T01:05:40;97899.28;;;10.65;59.56
40574;BME280;26283;49.020;8.644;2022-11-23T01:08:06;97899.28;;;10.65;59.58
40574;BME280;26283;49.020;8.644;2022-11-23T01:10:32;97904.69;;;10.65;59.71
40574;BME280;26283;49.020;8.644;2022-11-23T01:12:57;97898.47;;;10.64;59.71
40574;BME280;26283;49.020;8.644;2022-11-23T01:15:23;97899.28;;;10.65;59.70
40574;BME280;26283;49.020;8.644;2022-11-23T01:17:49;97899.28;;;10.65;59.67
40574;BME280;26283;49.020;8.644;2022-11-23T01:20:14;97891.69;;;10.62;59.62
40574;BME280;26283;49.020;8.644;2022-11-23T01:22:40;97898.47;;;10.64;59.61
40574;BME280;26283;49.020;8.644;2022-11-23T01:25:06;97898.72;;;10.63;59.58
40574;BME280;26283;49.020;8.644;2022-11-23T01:27:32;97908.44;;;10.64;59.58
40574;BME280;26283;49.020;8.644;2022-11-23T01:29:58;97897.66;;;10.64;59.57
40574;BME280;26283;49.020;8.644;2022-11-23T01:32:23;97904.94;;;10.63;59.56
40574;BME280;26283;49.020;8.644;2022-11-23T01:34:49;97907.63;;;10.63;59.53
40574;BME280;26283;49.020;8.644;2022-11-23T01:37:14;97909.75;;;10.61;59.49
40574;BME280;26283;49.020;8.644;2022-11-23T01:39:39;97912.19;;;10.63;59.52
40574;BME280;26283;49.020;8.644;2022-11-23T01:42:05;97912.19;;;10.63;59.47
40574;BME280;26283;49.020;8.644;2022-11-23T01:44:34;97911.63;;;10.61;59.42
40574;BME280;26283;49.020;8.644;2022-11-23T01:47:04;97908.94;;;10.61;59.38
40574;BME280;26283;49.020;8.644;2022-11-23T01:49:34;97911.63;;;10.61;59.41
40574;BME280;26283;49.020;8.644;2022-11-23T01:52:05;97911.91;;;10.59;59.39
40574;BME280;26283;49.020;8.644;2022-11-23T01:54:36;97916.22;;;10.60;59.40
40574;BME280;26283;49.020;8.644;2022-11-23T01:57:06;97921.06;;;10.58;59.46
40574;BME280;26283;49.020;8.644;2022-11-23T01:59:34;97916.72;;;10.57;59.43
40574;BME280;26283;49.020;8.644;2022-11-23T02:02:01;97915.66;;;10.58;59.38
40574;BME280;26283;49.020;8.644;2022-11-23T02:04:33;97919.41;;;10.57;59.38
40574;BME280;26283;49.020;8.644;2022-11-23T02:07:02;97914.28;;;10.56;59.50
40574;BME280;26283;49.020;8.644;2022-11-23T02:09:32;97922.38;;;10.56;59.42
40574;BME280;26283;49.020;8.644;2022-11-23T02:11:58;97922.38;;;10.56;59.51
40574;BME280;26283;49.020;8.644;2022-11-23T02:14:25;97925.63;;;10.58;59.38
40574;BME280;26283;49.020;8.644;2022-11-23T02:16:55;97927.75;;;10.56;59.41
40574;BME280;26283;49.020;8.644;2022-11-23T02:21:58;97931.50;;;10.55;59.48
40574;BME280;26283;49.020;8.644;2022-11-23T02:24:34;97926.13;;;10.55;59.27
40574;BME280;26283;49.020;8.644;2022-11-23T02:27:03;97923.69;;;10.53;59.44
40574;BME280;26283;49.020;8.644;2022-11-23T02:29:31;97927.19;;;10.54;59.33
40574;BME280;26283;49.020;8.644;2022-11-23T02:31:57;97932.00;;;10.52;59.42
40574;BME280;26283;49.020;8.644;2022-11-23T02:34:22;97930.38;;;10.51;59.50
40574;BME280;26283;49.020;8.644;2022-11-23T02:36:48;97925.81;;;10.51;59.59
40574;BME280;26283;49.020;8.644;2022-11-23T02:39:36;97932.00;;;10.52;59.65
40574;BME280;26283;49.020;8.644;2022-11-23T02:42:04;97925.81;;;10.51;59.88
40574;BME280;26283;49.020;8.644;2022-11-23T02:47:05;97927.94;;;10.49;59.85
40574;BME280;26283;49.020;8.644;2022-11-23T02:49:31;97933.31;;;10.49;59.75
40574;BME280;26283;49.020;8.644;2022-11-23T02:51:56;97928.75;;;10.50;59.73
40574;BME280;26283;49.020;8.644;2022-11-23T02:54:21;97925.22;;;10.49;59.68
40574;BME280;26283;49.020;8.644;2022-11-23T02:56:47;97916.34;;;10.49;59.67
40574;BME280;26283;49.020;8.644;2022-11-23T02:59:12;97914.72;;;10.48;59.68
40574;BME280;26283;49.020;8.644;2022-11-23T03:01:37;97919.28;;;10.47;59.70
40574;BME280;26283;49.020;8.644;2022-11-23T03:04:04;97918.47;;;10.47;59.73
40574;BME280;26283;49.020;8.644;2022-11-23T03:06:30;97919.28;;;10.47;59.69
40574;BME280;26283;49.020;8.644;2022-11-23T03:08:55;97921.16;;;10.47;59.67
40574;BME280;26283;49.020;8.644;2022-11-23T03:11:21;97917.66;;;10.46;59.72
40574;BME280;26283;49.020;8.644;2022-11-23T03:13:46;97920.59;;;10.45;59.75
40574;BME280;26283;49.020;8.644;2022-11-23T03:16:11;97917.66;;;10.46;59.74
40574;BME280;26283;49.020;8.644;2022-11-23T03:18:37;97918.72;;;10.45;59.80
40574;BME280;26283;49.020;8.644;2022-11-23T03:21:03;97923.28;;;10.45;59.77
40574;BME280;26283;49.020;8.644;2022-11-23T03:23:30;97922.22;;;10.46;59.76
40574;BME280;26283;49.020;8.644;2022-11-23T03:25:57;97919.78;;;10.44;59.76
40574;BME280;26283;49.020;8.644;2022-11-23T03:28:22;97913.56;;;10.44;59.77
40574;BME280;26283;49.020;8.644;2022-11-23T03:30:48;97918.97;;;10.44;59.74
40574;BME280;26283;49.020;8.644;2022-11-23T03:33:14;97929.75;;;10.44;59.74
40574;BME280;26283;49.020;8.644;2022-11-23T03:35:39;97924.34;;;10.44;59.78
40574;BME280;26283;49.020;8.644;2022-11-23T03:38:04;97932.69;;;10.42;59.85
40574;BME280;26283;49.020;8.644;2022-11-23T03:40:30;97933.50;;;10.43;59.82
40574;BME280;26283;49.020;8.644;2022-11-23T03:42:55;97924.59;;;10.42;59.83
40574;BME280;26283;49.020;8.644;2022-11-23T03:45:21;97914.63;;;10.43;59.85
40574;BME280;26283;49.020;8.644;2022-11-23T03:47:46;97922.72;;;10.43;59.88
40574;BME280;26283;49.020;8.644;2022-11-23T03:50:11;97914.06;;;10.41;59.85
40574;BME280;26283;49.020;8.644;2022-11-23T03:52:37;97912.19;;;10.41;59.85
40574;BME280;26283;49.020;8.644;2022-11-23T03:55:02;97904.94;;;10.42;59.82
40574;BME280;26283;49.020;8.644;2022-11-23T03:57:28;97906.00;;;10.41;59.84
40574;BME280;26283;49.020;8.644;2022-11-23T03:59:53;97902.50;;;10.40;59.86
40574;BME280;26283;49.020;8.644;2022-11-23T04:02:18;97910.56;;;10.40;59.85
40574;BME280;26283;49.020;8.644;2022-11-23T04:04:44;97907.06;;;10.40;59.84
40574;BME280;26283;49.020;8.644;2022-11-23T04:07:09;97908.16;;;10.39;59.92
40574;BME280;26283;49.020;8.644;2022-11-23T04:09:35;97907.34;;;10.38;59.94
40574;BME280;26283;49.020;8.644;2022-11-23T04:12:00;97914.34;;;10.39;59.96
40574;BME280;26283;49.020;8.644;2022-11-23T04:14:25;97916.22;;;10.39;59.97
40574;BME280;26283;49.020;8.644;2022-11-23T04:16:51;97917.28;;;10.38;59.96
40574;BME280;26283;49.020;8.644;2022-11-23T04:19:16;97915.41;;;10.38;59.98
40574;BME280;26283;49.020;8.644;2022-11-23T04:21:42;97916.22;;;10.39;60.00
40574;BME280;26283;49.020;8.644;2022-11-23T04:24:07;97912.97;;;10.37;59.99
40574;BME280;26283;49.020;8.644;2022-11-23T04:26:32;97906.78;;;10.36;59.99
40574;BME280;26283;49.020;8.644;2022-11-23T04:28:58;97900.56;;;10.36;59.97
40574;BME280;26283;49.020;8.644;2022-11-23T04:31:23;97897.87;;;10.36;59.94
40574;BME280;26283;49.020;8.644;2022-11-23T04:33:49;97897.87;;;10.36;59.97
40574;BME280;26283;49.020;8.644;2022-11-23T04:36:14;97892.75;;;10.34;59.88
40574;BME280;26283;49.020;8.644;2022-11-23T04:38:39;97890.88;;;10.35;59.90
40574;BME280;26283;49.020;8.644;2022-11-23T04:41:05;97889.00;;;10.35;59.92
40574;BME280;26283;49.020;8.644;2022-11-23T04:43:30;97891.94;;;10.34;59.91
40574;BME280;26283;49.020;8.644;2022-11-23T04:45:56;97896.50;;;10.33;59.92
40574;BME280;26283;49.020;8.644;2022-11-23T04:48:21;97895.69;;;10.33;59.99
40574;BME280;26283;49.020;8.644;2022-11-23T04:50:47;97894.62;;;10.34;60.05
40574;BME280;26283;49.020;8.644;2022-11-23T04:53:13;97895.69;;;10.33;60.11
40574;BME280;26283;49.020;8.644;2022-11-23T04:55:39;97888.66;;;10.32;60.17
40574;BME280;26283;49.020;8.644;2022-11-23T04:58:04;97892.41;;;10.30;60.19
40574;BME280;26283;49.020;8.644;2022-11-23T05:00:29;97894.06;;;10.32;60.14
40574;BME280;26283;49.020;8.644;2022-11-23T05:02:58;97911.03;;;10.32;60.08
40574;BME280;26283;49.020;8.644;2022-11-23T05:05:24;97904.81;;;10.32;60.11
40574;BME280;26283;49.020;8.644;2022-11-23T05:07:49;97904.81;;;10.32;60.07
40574;BME280;26283;49.020;8.644;2022-11-23T05:10:15;97898.88;;;10.29;60.08
40574;BME280;26283;49.020;8.644;2022-11-23T05:12:40;97910.22;;;10.32;60.11
40574;BME280;26283;49.020;8.644;2022-11-23T05:15:06;97902.38;;;10.30;60.14
40574;BME280;26283;49.020;8.644;2022-11-23T05:17:31;97896.19;;;10.29;60.10
40574;BME280;26283;49.020;8.644;2022-11-23T05:19:58;97902.38;;;10.30;60.15
40574;BME280;26283;49.020;8.644;2022-11-23T05:22:23;97891.59;;;10.30;60.19
40574;BME280;26283;49.020;8.644;2022-11-23T05:24:49;97896.19;;;10.29;60.20
40574;BME280;26283;49.020;8.644;2022-11-23T05:27:15;97895.63;;;10.27;60.25
40574;BME280;26283;49.020;8.644;2022-11-23T05:29:40;97897.25;;;10.28;60.25
40574;BME280;26283;49.020;8.644;2022-11-23T05:32:06;97893.72;;;10.28;60.27
40574;BME280;26283;49.020;8.644;2022-11-23T05:34:31;97900.19;;;10.27;60.30
40574;BME280;26283;49.020;8.644;2022-11-23T05:36:56;97897.72;;;10.25;60.32
40574;BME280;26283;49.020;8.644;2022-11-23T05:39:22;97898.31;;;10.27;60.31
40574;BME280;26283;49.020;8.644;2022-11-23T05:41:47;97898.31;;;10.27;60.29
40574;BME280;26283;49.020;8.644;2022-11-23T05:44:13;97897.47;;;10.27;60.27
40574;BME280;26283;49.020;8.644;2022-11-23T05:46:38;97902.06;;;10.26;60.26
40574;BME280;26283;49.020;8.644;2022-11-23T05:49:03;97893.97;;;10.26;60.26
40574;BME280;26283;49.020;8.644;2022-11-23T05:51:29;97902.06;;;10.26;60.26
40574;BME280;26283;49.020;8.644;2022-11-23T05:53:54;97900.44;;;10.25;60.25
40574;BME280;26283;49.020;8.644;2022-11-23T05:56:21;97912.81;;;10.26;60.27
40574;BME280;26283;49.020;8.644;2022-11-23T05:58:46;97911.19;;;10.25;60.29
40574;BME280;26283;49.020;8.644;2022-11-23T06:01:12;97905.00;;;10.25;60.32
40574;BME280;26283;49.020;8.644;2022-11-23T06:03:37;97909.56;;;10.24;60.33
40574;BME280;26283;49.020;8.644;2022-11-23T06:06:02;97907.94;;;10.23;60.34
40574;BME280;26283;49.020;8.644;2022-11-23T06:08:28;97908.75;;;10.24;60.34
40574;BME280;26283;49.020;8.644;2022-11-23T06:10:53;97907.94;;;10.23;60.35
40574;BME280;26283;49.020;8.644;2022-11-23T06:13:19;97914.94;;;10.24;60.35
40574;BME280;26283;49.020;8.644;2022-11-23T06:15:44;97913.31;;;10.23;60.37
40574;BME280;26283;49.020;8.644;2022-11-23T06:18:09;97922.22;;;10.24;60.34
40574;BME280;26283;49.020;8.644;2022-11-23T06:20:35;97921.41;;;10.23;60.36
40574;BME280;26283;49.020;8.644;2022-11-23T06:23:00;97923.03;;;10.24;60.35
40574;BME280;26283;49.020;8.644;2022-11-23T06:25:26;97923.28;;;10.23;60.28
40574;BME280;26283;49.020;8.644;2022-11-23T06:27:57;97917.06;;;10.22;60.22
40574;BME280;26283;49.020;8.644;2022-11-23T06:30:23;97914.38;;;10.22;60.28
40574;BME280;26283;49.020;8.644;2022-11-23T06:32:49;97919.75;;;10.22;60.21
40574;BME280;26283;49.020;8.644;2022-11-23T06:35:14;97909.00;;;10.22;60.23
40574;BME280;26283;49.020;8.644;2022-11-23T06:37:39;97916.25;;;10.22;60.26
40574;BME280;26283;49.020;8.644;2022-11-23T06:40:05;97922.47;;;10.22;60.24
40574;BME280;26283;49.020;8.644;2022-11-23T06:42:31;97916.50;;;10.20;60.14
40574;BME280;26283;49.020;8.644;2022-11-23T06:44:56;97913.81;;;10.20;60.10
40574;BME280;26283;49.020;8.644;2022-11-23T06:47:21;97913.81;;;10.20;60.07
40574;BME280;26283;49.020;8.644;2022-11-23T06:49:47;97921.88;;;10.20;60.07
40574;BME280;26283;49.020;8.644;2022-11-23T06:52:12;97913.00;;;10.20;60.00
40574;BME280;26283;49.020;8.644;2022-11-23T06:54:38;97922.13;;;10.19;60.00
40574;BME280;26283;49.020;8.644;2022-11-23T06:57:06;97922.94;;;10.19;60.02
40574;BME280;26283;49.020;8.644;2022-11-23T06:59:32;97925.63;;;10.19;60.03
40574;BME280;26283;49.020;8.644;2022-11-23T07:01:57;97929.16;;;10.20;60.00
40574;BME280;26283;49.020;8.644;2022-11-23T07:04:22;97932.91;;;10.19;60.04
40574;BME280;26283;49.020;8.644;2022-11-23T07:06:48;97932.06;;;10.18;60.03
40574;BME280;26283;49.020;8.644;2022-11-23T07:09:13;97935.84;;;10.17;59.89
40574;BME280;26283;49.020;8.644;2022-11-23T07:11:39;97942.81;;;10.18;59.79
40574;BME280;26283;49.020;8.644;2022-11-23T07:14:04;97937.97;;;10.15;59.75
40574;BME280;26283;49.020;8.644;2022-11-23T07:16:30;97939.59;;;10.16;59.68
40574;BME280;26283;49.020;8.644;2022-11-23T07:18:56;97944.97;;;10.16;59.67
40574;BME280;26283;49.020;8.644;2022-11-23T07:21:22;97945.78;;;10.17;59.70
40574;BME280;26283;49.020;8.644;2022-11-23T07:23:47;97943.09;;;10.17;59.69
40574;BME280;26283;49.020;8.644;2022-11-23T07:26:12;97937.97;;;10.15;59.69
40574;BME280;26283;49.020;8.644;2022-11-23T07:28:38;97938.78;;;10.16;59.76
40574;BME280;26283;49.020;8.644;2022-11-23T07:31:03;97935.28;;;10.15;59.81
40574;BME280;26283;49.020;8.644;2022-11-23T07:33:29;97943.34;;;10.15;59.89
40574;BME280;26283;49.020;8.644;2022-11-23T07:35:54;97944.41;;;10.14;60.06
40574;BME280;26283;49.020;8.644;2022-11-23T07:38:20;97939.84;;;10.15;60.17
40574;BME280;26283;49.020;8.644;2022-11-23T07:40:47;97943.59;;;10.14;60.16
40574;BME280;26283;49.020;8.644;2022-11-23T07:43:13;97945.47;;;10.13;60.18
40574;BME280;26283;49.020;8.644;2022-11-23T07:45:39;97947.09;;;10.14;60.21
40574;BME280;26283;49.020;8.644;2022-11-23T07:48:07;97947.09;;;10.14;60.26
40574;BME280;26283;49.020;8.644;2022-11-23T07:50:33;97953.53;;;10.13;60.32
40574;BME280;26283;49.020;8.644;2022-11-23T07:53:04;97947.09;;;10.14;60.32
40574;BME280;26283;49.020;8.644;2022-11-23T07:55:29;97949.78;;;10.14;60.42
40574;BME280;26283;49.020;8.644;2022-11-23T07:57:56;97951.91;;;10.12;60.43
40574;BME280;26283;49.020;8.644;2022-11-23T08:00:22;97948.41;;;10.12;60.56
40574;BME280;26283;49.020;8.644;2022-11-23T08:02:48;97974.75;;;10.10;61.24
40574;BME280;26283;49.020;8.644;2022-11-23T08:05:14;97973.19;;;10.14;61.24
40574;BME280;26283;49.020;8.644;2022-11-23T08:07:40;97968.38;;;10.16;61.01
40574;BME280;26283;49.020;8.644;2022-11-23T08:10:05;97967.91;;;10.19;60.90
40574;BME280;26283;49.020;8.644;2022-11-23T08:12:31;97972.22;;;10.20;60.83
40574;BME280;26283;49.020;8.644;2022-11-23T08:14:56;97960.63;;;10.19;60.80
40574;BME280;26283;49.020;8.644;2022-11-23T08:17:22;97962.50;;;10.19;60.77
40574;BME280;26283;49.020;8.644;2022-11-23T08:19:47;97953.59;;;10.18;60.73
40574;BME280;26283;49.020;8.644;2022-11-23T08:22:13;97957.63;;;10.16;60.68
40574;BME280;26283;49.020;8.644;2022-11-23T08:24:38;97951.44;;;10.15;60.65
40574;BME280;26283;49.020;8.644;2022-11-23T08:27:03;97962.19;;;10.15;60.65
40574;BME280;26283;49.020;8.644;2022-11-23T08:29:29;97949.78;;;10.14;60.66
40574;BME280;26283;49.020;8.644;2022-11-23T08:31:54;97945.47;;;10.13;60.70
40574;BME280;26283;49.020;8.644;2022-11-23T08:34:20;97961.62;;;10.13;60.70
40574;BME280;26283;49.020;8.644;2022-11-23T08:36:45;97960.00;;;10.12;60.72
40574;BME280;26283;49.020;8.644;2022-11-23T08:39:12;97961.88;;;10.12;60.71
40574;BME280;26283;49.020;8.644;2022-11-23T08:41:39;97960.00;;;10.12;60.71
40574;BME280;26283;49.020;8.644;2022-11-23T08:44:04;97961.03;;;10.11;60.73
40574;BME280;26283;49.020;8.644;2022-11-23T08:46:32;97965.37;;;10.12;60.75
40574;BME280;26283;49.020;8.644;2022-11-23T08:48:57;97959.16;;;10.12;60.76
40574;BME280;26283;49.020;8.644;2022-11-23T08:51:23;97956.47;;;10.12;60.76
40574;BME280;26283;49.020;8.644;2022-11-23T08:53:49;97958.34;;;10.11;60.75
40574;BME280;26283;49.020;8.644;2022-11-23T08:56:14;97958.34;;;10.11;60.74
40574;BME280;26283;49.020;8.644;2022-11-23T08:58:40;97958.34;;;10.11;60.73
40574;BME280;26283;49.020;8.644;2022-11-23T09:01:10;97963.75;;;10.11;60.74
40574;BME280;26283;49.020;8.644;2022-11-23T09:03:36;97962.69;;;10.12;60.80
40574;BME280;26283;49.020;8.644;2022-11-23T09:06:01;97964.06;;;10.15;60.90
40574;BME280;26283;49.020;8.644;2022-11-23T09:08:27;97968.16;;;10.17;60.91
40574;BME280;26283;49.020;8.644;2022-11-23T09:10:53;97958.50;;;10.21;62.16
40574;BME280;26283;49.020;8.644;2022-11-23T09:13:19;97959.66;;;10.25;62.05
40574;BME280;26283;49.020;8.644;2022-11-23T09:15:44;97962.91;;;10.27;61.99
40574;BME280;26283;49.020;8.644;2022-11-23T09:18:09;97964.56;;;10.28;61.64
40574;BME280;26283;49.020;8.644;2022-11-23T09:20:35;97965.37;;;10.29;61.50
40574;BME280;26283;49.020;8.644;2022-11-23T09:23:01;97961.62;;;10.30;61.41
40574;BME280;26283;49.020;8.644;2022-11-23T09:25:27;97964.56;;;10.28;61.50
40574;BME280;26283;49.020;8.644;2022-11-23T09:27:56;97967.81;;;10.30;62.23
40574;BME280;26283;49.020;8.644;2022-11-23T09:30:23;97968.94;;;10.35;62.36
40574;BME280;26283;49.020;8.644;2022-11-23T09:32:48;97964.69;;;10.39;63.32
40574;BME280;26283;49.020;8.644;2022-11-23T09:35:13;97968.50;;;10.43;63.06
40574;BME280;26283;49.020;8.644;2022-11-23T09:37:39;97966.94;;;10.47;62.71
40574;BME280;26283;49.020;8.644;2022-11-23T09:40:05;97964.25;;;10.47;62.32
40574;BME280;26283;49.020;8.644;2022-11-23T09:43:13;97965.87;;;10.48;62.10
40574;BME280;26283;49.020;8.644;2022-11-23T09:45:46;97971.84;;;10.50;62.03
40574;BME280;26283;49.020;8.644;2022-11-23T09:51:08;97961.62;;;10.52;61.90
40574;BME280;26283;49.020;8.644;2022-11-23T09:56:15;97967.09;;;10.57;62.05
40574;BME280;26283;49.020;8.644;2022-11-23T09:58:41;97962.03;;;10.60;62.02
40574;BME280;26283;49.020;8.644;2022-11-23T10:01:11;97957.41;;;10.61;61.94
40574;BME280;26283;49.020;8.644;2022-11-23T10:03:39;97960.69;;;10.63;61.87
40574;BME280;26283;49.020;8.644;2022-11-23T10:06:27;97963.63;;;10.61;61.87
40574;BME280;26283;49.020;8.644;2022-11-23T10:22:34;97946.66;;;10.61;62.21
40574;BME280;26283;49.020;8.644;2022-11-23T10:25:27;97950.16;;;10.61;62.24
40574;BME280;26283;49.020;8.644;2022-11-23T10:27:58;97952.59;;;10.63;62.14
40574;BME280;26283;49.020;8.644;2022-11-23T10:30:25;97947.78;;;10.65;62.08
40574;BME280;26283;49.020;8.644;2022-11-23T10:33:03;97944.84;;;10.67;62.06
40574;BME280;26283;49.020;8.644;2022-11-23T10:35:32;97941.91;;;10.68;62.07
40574;BME280;26283;49.020;8.644;2022-11-23T10:38:24;97950.53;;;10.70;62.02
40574;BME280;26283;49.020;8.644;2022-11-23T10:41:09;97948.66;;;10.71;62.02
40574;BME280;26283;49.020;8.644;2022-11-23T10:43:54;97948.41;;;10.72;61.94
40574;BME280;26283;49.020;8.644;2022-11-23T10:46:36;97938.44;;;10.73;61.94
40574;BME280;26283;49.020;8.644;2022-11-23T10:49:18;97943.59;;;10.74;61.92
40574;BME280;26283;49.020;8.644;2022-11-23T10:52:04;97945.22;;;10.75;61.93
40574;BME280;26283;49.020;8.644;2022-11-23T11:02:49;97936.13;;;10.81;61.85
40574;BME280;26283;49.020;8.644;2022-11-23T11:05:31;97930.75;;;10.81;61.82
40574;BME280;26283;49.020;8.644;2022-11-23T11:07:59;97929.94;;;10.81;61.81
40574;BME280;26283;49.020;8.644;2022-11-23T11:10:40;97927.00;;;10.82;61.78
40574;BME280;26283;49.020;8.644;2022-11-23T11:13:38;97930.22;;;10.84;61.77
40574;BME280;26283;49.020;8.644;2022-11-23T11:16:09;97919.19;;;10.86;61.74
40574;BME280;26283;49.020;8.644;2022-11-23T11:18:42;97919.19;;;10.86;61.70
40574;BME280;26283;49.020;8.644;2022-11-23T11:21:43;97918.13;;;10.87;61.70
40574;BME280;26283;49.020;8.644;2022-11-23T11:24:20;97907.66;;;10.90;61.74
40574;BME280;26283;49.020;8.644;2022-11-23T11:26:49;97907.41;;;10.92;61.71
40574;BME280;26283;49.020;8.644;2022-11-23T11:34:44;97886.72;;;10.97;61.67
40574;BME280;26283;49.020;8.644;2022-11-23T11:39:49;97879.19;;;10.99;61.61
40574;BME280;26283;49.020;8.644;2022-11-23T11:42:43;97869.22;;;11.00;61.61
40574;BME280;26283;49.020;8.644;2022-11-23T11:45:15;97870.28;;;10.99;61.58
40574;BME280;26283;49.020;8.644;2022-11-23T11:50:49;97861.69;;;11.02;61.61
40574;BME280;26283;49.020;8.644;2022-11-23T11:53:23;97858.75;;;11.04;61.56
40574;BME280;26283;49.020;8.644;2022-11-23T11:58:23;97856.59;;;11.06;61.55
40574;BME280;26283;49.020;8.644;2022-11-23T12:00:55;97862.53;;;11.08;61.55
40574;BME280;26283;49.020;8.644;2022-11-23T12:03:37;97856.31;;;11.07;61.55
40574;BME280;26283;49.020;8.644;2022-11-23T12:06:26;97856.88;;;11.09;61.52
40574;BME280;26283;49.020;8.644;2022-11-23T12:09:05;97854.75;;;11.11;61.48
40574;BME280;26283;49.020;8.644;2022-11-23T12:11:33;97850.19;;;11.12;61.45
40574;BME280;26283;49.020;8.644;2022-11-23T12:14:01;97841.84;;;11.13;61.41
40574;BME280;26283;49.020;8.644;2022-11-23T12:19:30;97842.41;;;11.15;61.41
40574;BME280;26283;49.020;8.644;2022-11-23T12:27:36;97852.41;;;11.20;61.33
40574;BME280;26283;49.020;8.644;2022-11-23T12:33:02;97844.87;;;11.22;61.29
40574;BME280;26283;49.020;8.644;2022-11-23T12:35:37;97859.19;;;11.22;61.24
40574;BME280;26283;49.020;8.644;2022-11-23T12:38:29;97846.25;;;11.24;61.23
40574;BME280;26283;49.020;8.644;2022-11-23T12:54:22;97820.69;;;11.32;61.03
40574;BME280;26283;49.020;8.644;2022-11-23T12:57:13;97827.44;;;11.34;61.02
40574;BME280;26283;49.020;8.644;2022-11-23T13:08:12;97813.19;;;11.39;60.89
40574;BME280;26283;49.020;8.644;2022-11-23T13:13:21;97811.88;;;11.42;60.84
40574;BME280;26283;49.020;8.644;2022-11-23T13:21:13;97810.28;;;11.46;60.77
40574;BME280;26283;49.020;8.644;2022-11-23T13:23:42;97816.19;;;11.48;60.74
40574;BME280;26283;49.020;8.644;2022-11-23T13:26:18;97812.44;;;11.49;60.70
40574;BME280;26283;49.020;8.644;2022-11-23T13:28:46;97813.81;;;11.51;60.68
40574;BME280;26283;49.020;8.644;2022-11-23T13:33:50;97801.69;;;11.54;60.61
40574;BME280;26283;49.020;8.644;2022-11-23T13:38:55;97792.25;;;11.56;60.52
40574;BME280;26283;49.020;8.644;2022-11-23T13:46:36;97774.47;;;11.60;60.46
40574;BME280;26283;49.020;8.644;2022-11-23T13:49:02;97779.62;;;11.62;60.41
40574;BME280;26283;49.020;8.644;2022-11-23T13:51:30;97775.03;;;11.62;60.38
40574;BME280;26283;49.020;8.644;2022-11-23T13:54:05;97779.38;;;11.63;60.38
40574;BME280;26283;49.020;8.644;2022-11-23T13:56:41;97771.81;;;11.65;60.34
40574;BME280;26283;49.020;8.644;2022-11-23T14:04:43;97753.22;;;11.69;60.27
40574;BME280;26283;49.020;8.644;2022-11-23T14:07:22;97747.84;;;11.69;60.24
40574;BME280;26283;49.020;8.644;2022-11-23T14:09:53;97752.13;;;11.70;60.23
40574;BME280;26283;49.020;8.644;2022-11-23T14:15:05;97750.78;;;11.73;60.22
40574;BME280;26283;49.020;8.644;2022-11-23T14:20:38;97741.62;;;11.74;60.16
40574;BME280;26283;49.020;8.644;2022-11-23T14:31:27;97744.06;;;11.75;60.09
40574;BME280;26283;49.020;8.644;2022-11-23T14:34:28;97736.78;;;11.76;60.10
40574;BME280;26283;49.020;8.644;2022-11-23T14:43:14;97716.84;;;11.77;60.08
40574;BME280;26283;49.020;8.644;2022-11-23T14:45:44;97722.25;;;11.77;60.08
40574;BME280;26283;49.020;8.644;2022-11-23T14:48:22;97722.25;;;11.77;60.09
40574;BME280;26283;49.020;8.644;2022-11-23T14:50:58;97721.16;;;11.78;60.08
40574;BME280;26283;49.020;8.644;2022-11-23T14:53:28;97718.47;;;11.78;60.07
40574;BME280;26283;49.020;8.644;2022-11-23T14:55:56;97717.41;;;11.79;60.06
40574;BME280;26283;49.020;8.644;2022-11-23T14:58:22;97718.75;;;11.81;60.06
40574;BME280;26283;49.020;8.644;2022-11-23T15:00:50;97714.44;;;11.80;60.02
40574;BME280;26283;49.020;8.644;2022-11-23T15:03:18;97717.13;;;11.80;60.02
40574;BME280;26283;49.020;8.644;2022-11-23T15:05:51;97719.56;;;11.82;60.02
40574;BME280;26283;49.020;8.644;2022-11-23T15:11:02;97719.31;;;11.83;59.98
40574;BME280;26283;49.020;8.644;2022-11-23T15:13:40;97717.41;;;11.84;59.94